createdAt,value
2023-06-25T00:00:01.419Z,99663.69
2023-06-25T00:01:06.974Z,99663.8
2023-06-25T00:02:12.360Z,99667.49
2023-06-25T00:03:17.907Z,99663.98
2023-06-25T00:04:23.330Z,99665.14
2023-06-25T00:05:28.704Z,99668.53
2023-06-25T00:06:34.028Z,99668.02
2023-06-25T00:07:39.346Z,99666.78
2023-06-25T00:08:44.654Z,99671.11
2023-06-25T00:09:49.969Z,99661.22
2023-06-25T00:10:55.341Z,99662.84
2023-06-25T00:12:00.680Z,99665.74
2023-06-25T00:13:05.975Z,99662.84
2023-06-25T00:14:11.274Z,99659.33
2023-06-25T00:15:16.712Z,99663.17
2023-06-25T00:16:22.046Z,99666.07
2023-06-25T00:17:27.451Z,99667.72
2023-06-25T00:18:32.989Z,99666.67
2023-06-25T00:19:38.550Z,99665.22
2023-06-25T00:20:43.867Z,99667.72
2023-06-25T00:21:49.211Z,99666.98
2023-06-25T00:23:08.192Z,99668.95
2023-06-25T00:24:13.635Z,99661.2
2023-06-25T00:25:19.010Z,99664.09
2023-06-25T00:26:24.327Z,99662.64
2023-06-25T00:27:29.645Z,99666.45
2023-06-25T00:28:34.955Z,99665.52
2023-06-25T00:29:40.274Z,99665.41
2023-06-25T00:30:45.736Z,99662.54
2023-06-25T00:31:51.116Z,99658.81
2023-06-25T00:32:56.547Z,99662.64
2023-06-25T00:34:02.285Z,99661.41
2023-06-25T00:35:07.611Z,99663.02
2023-06-25T00:36:12.974Z,99665.94
2023-06-25T00:37:18.311Z,99653.84
2023-06-25T00:38:23.665Z,99662.75
2023-06-25T00:39:28.935Z,99656.53
2023-06-25T00:40:34.335Z,99647.02
2023-06-25T00:41:40.018Z,99654.89
2023-06-25T00:42:45.298Z,99648.37
2023-06-25T00:43:50.589Z,99654.78
2023-06-25T00:44:55.980Z,99647.55
2023-06-25T00:46:01.296Z,99650.86
2023-06-25T00:47:06.632Z,99647.62
2023-06-25T00:48:11.936Z,99655.91
2023-06-25T00:49:17.669Z,99651.88
2023-06-25T00:50:23.328Z,99650.23
2023-06-25T00:51:39.536Z,99647.33
2023-06-25T00:52:44.858Z,99648.67
2023-06-25T00:53:50.162Z,99651.46
2023-06-25T00:54:55.463Z,99655.49
2023-06-25T00:56:00.758Z,99648.78
2023-06-25T00:57:06.063Z,99645.58
2023-06-25T00:58:11.434Z,99647.55
2023-06-25T00:59:16.746Z,99643.9
2023-06-25T01:00:22.153Z,99642.03
2023-06-25T01:01:27.466Z,99644.53
2023-06-25T01:02:32.948Z,99648.48
2023-06-25T01:03:38.627Z,99648.75
2023-06-25T01:04:44.067Z,99650.42
2023-06-25T01:05:54.467Z,99647.52
2023-06-25T01:07:16.205Z,99646.37
2023-06-25T01:08:21.706Z,99653.93
2023-06-25T01:09:27.037Z,99655.05
2023-06-25T01:10:32.340Z,99652.7
2023-06-25T01:11:37.673Z,99648.97
2023-06-25T01:12:42.982Z,99652.78
2023-06-25T01:13:48.339Z,99652.59
2023-06-25T01:14:53.672Z,99648.15
2023-06-25T01:15:59.021Z,99645.05
2023-06-25T01:17:04.376Z,99645.16
2023-06-25T01:18:09.646Z,99640.7
2023-06-25T01:19:14.938Z,99636.97
2023-06-25T01:20:20.259Z,99636.25
2023-06-25T01:21:25.584Z,99646.17
2023-06-25T01:22:30.934Z,99638.72
2023-06-25T01:23:36.271Z,99642.97
2023-06-25T01:24:41.585Z,99634.09
2023-06-25T01:25:46.896Z,99630.26
2023-06-25T01:26:52.201Z,99631.08
2023-06-25T01:27:57.498Z,99625.93
2023-06-25T01:29:02.808Z,99630.47
2023-06-25T01:30:08.125Z,99628.72
2023-06-25T01:31:13.469Z,99621.59
2023-06-25T01:32:18.765Z,99631.08
2023-06-25T01:33:24.239Z,99629.66
2023-06-25T01:34:29.608Z,99623.13
2023-06-25T01:35:35.273Z,99625.11
2023-06-25T01:36:41.222Z,99619.84
2023-06-25T01:37:46.617Z,99622.2
2023-06-25T01:38:51.919Z,99630.59
2023-06-25T01:39:57.259Z,99621.57
2023-06-25T01:41:02.537Z,99624.48
2023-06-25T01:42:07.869Z,99617.44
2023-06-25T01:43:13.199Z,99621.91
2023-06-25T01:44:21.788Z,99621.27
2023-06-25T01:45:27.213Z,99621.38
2023-06-25T01:46:32.704Z,99620.86
2023-06-25T01:47:38.135Z,99619.11
2023-06-25T01:48:43.551Z,99620.45
2023-06-25T01:49:48.999Z,99616.42
2023-06-25T01:50:54.310Z,99618.77
2023-06-25T01:51:59.606Z,99617.35
2023-06-25T01:53:04.964Z,99613.11
2023-06-25T01:54:10.255Z,99614.67
2023-06-25T01:55:15.590Z,99617.73
2023-06-25T01:56:20.929Z,99616.09
2023-06-25T01:57:26.300Z,99621.46
2023-06-25T01:58:31.744Z,99617.95
2023-06-25T01:59:37.057Z,99621.57
2023-06-25T02:00:42.409Z,99624.66
2023-06-25T02:01:47.868Z,99624.26
2023-06-25T02:02:53.681Z,99616.61
2023-06-25T02:03:59.288Z,99615.98
2023-06-25T02:05:04.648Z,99602.15
2023-06-25T02:06:09.971Z,99605.66
2023-06-25T02:07:15.390Z,99606.7
2023-06-25T02:08:20.757Z,99610.53
2023-06-25T02:09:26.164Z,99608.67
2023-06-25T02:10:31.476Z,99602.34
2023-06-25T02:11:36.807Z,99605.98
2023-06-25T02:12:42.108Z,99606.06
2023-06-25T02:13:47.423Z,99596.67
2023-06-25T02:14:52.808Z,99600.7
2023-06-25T02:15:58.186Z,99601.62
2023-06-25T02:17:03.587Z,99604.5
2023-06-25T02:18:08.902Z,99611.14
2023-06-25T02:19:14.214Z,99607.52
2023-06-25T02:20:19.582Z,99606.48
2023-06-25T02:21:25.075Z,99604.28
2023-06-25T02:22:30.370Z,99603.6
2023-06-25T02:23:35.697Z,99604.42
2023-06-25T02:24:41.011Z,99604.2
2023-06-25T02:25:46.387Z,99605.84
2023-06-25T02:26:51.687Z,99600.59
2023-06-25T02:27:57.009Z,99604.8
2023-06-25T02:29:02.336Z,99595
2023-06-25T02:30:07.606Z,99603.27
2023-06-25T02:31:13.022Z,99604.73
2023-06-25T02:32:18.427Z,99601.71
2023-06-25T02:33:23.799Z,99603.57
2023-06-25T02:34:29.111Z,99605.73
2023-06-25T02:35:34.659Z,99605.55
2023-06-25T02:36:40.571Z,99602.83
2023-06-25T02:37:45.915Z,99604.8
2023-06-25T02:38:51.265Z,99600.78
2023-06-25T02:39:56.546Z,99596.64
2023-06-25T02:41:01.854Z,99604.17
2023-06-25T02:42:07.215Z,99605.92
2023-06-25T02:43:12.499Z,99611.63
2023-06-25T02:44:17.834Z,99611.22
2023-06-25T02:45:23.157Z,99609.25
2023-06-25T02:46:28.523Z,99611.22
2023-06-25T02:47:33.970Z,99617
2023-06-25T02:48:39.360Z,99616.25
2023-06-25T02:49:44.686Z,99616.06
2023-06-25T02:50:50.045Z,99612.56
2023-06-25T02:51:55.370Z,99606.86
2023-06-25T02:53:00.732Z,99611.63
2023-06-25T02:54:06.119Z,99613.98
2023-06-25T02:55:11.451Z,99614.39
2023-06-25T02:56:16.787Z,99615.24
2023-06-25T02:57:22.111Z,99607.8
2023-06-25T02:58:27.428Z,99610.59
2023-06-25T02:59:32.700Z,99608.09
2023-06-25T03:00:37.998Z,99606.75
2023-06-25T03:01:43.303Z,99607.05
2023-06-25T03:02:48.844Z,99608.8
2023-06-25T03:03:54.410Z,99607.57
2023-06-25T03:04:59.710Z,99615.33
2023-06-25T03:06:04.990Z,99610.89
2023-06-25T03:07:10.341Z,99601.8
2023-06-25T03:08:15.750Z,99606.86
2023-06-25T03:09:21.114Z,99607.8
2023-06-25T03:10:26.406Z,99608.8
2023-06-25T03:11:31.707Z,99610.26
2023-06-25T03:12:36.992Z,99610.04
2023-06-25T03:13:42.462Z,99605
2023-06-25T03:14:47.834Z,99603.14
2023-06-25T03:15:53.148Z,99608.39
2023-06-25T03:16:58.468Z,99603.33
2023-06-25T03:18:03.881Z,99604.67
2023-06-25T03:19:09.355Z,99612.53
2023-06-25T03:20:14.782Z,99611.19
2023-06-25T03:21:20.092Z,99614.17
2023-06-25T03:22:25.384Z,99618.91
2023-06-25T03:23:30.698Z,99610.56
2023-06-25T03:24:36.505Z,99608.8
2023-06-25T03:25:41.976Z,99609.22
2023-06-25T03:26:47.269Z,99612.2
2023-06-25T03:27:52.574Z,99606.72
2023-06-25T03:28:57.842Z,99615.41
2023-06-25T03:30:03.270Z,99616.23
2023-06-25T03:31:08.807Z,99607.46
2023-06-25T03:32:14.314Z,99608.28
2023-06-25T03:33:19.700Z,99610.56
2023-06-25T03:34:25.040Z,99602.7
2023-06-25T03:35:30.343Z,99606.61
2023-06-25T03:36:35.709Z,99605.27
2023-06-25T03:37:41.026Z,99601.47
2023-06-25T03:38:46.350Z,99607.88
2023-06-25T03:39:51.652Z,99609.7
2023-06-25T03:40:56.958Z,99603
2023-06-25T03:42:02.323Z,99610.23
2023-06-25T03:43:07.649Z,99604.23
2023-06-25T03:44:12.978Z,99613.33
2023-06-25T03:45:18.431Z,99608.37
2023-06-25T03:46:23.752Z,99609.3
2023-06-25T03:47:29.224Z,99610.64
2023-06-25T03:48:34.772Z,99615.08
2023-06-25T03:49:40.155Z,99613.84
2023-06-25T03:50:45.526Z,99610.86
2023-06-25T03:51:50.861Z,99612.28
2023-06-25T03:52:56.191Z,99613.84
2023-06-25T03:54:01.686Z,99608.97
2023-06-25T03:55:06.973Z,99616.12
2023-06-25T03:56:12.293Z,99613.02
2023-06-25T03:57:17.584Z,99615.3
2023-06-25T03:58:22.952Z,99617.98
2023-06-25T03:59:28.248Z,99619.81
2023-06-25T04:00:33.571Z,99609.79
2023-06-25T04:01:38.955Z,99611.05
2023-06-25T04:02:44.493Z,99614.89
2023-06-25T04:03:49.946Z,99615.79
2023-06-25T04:04:55.327Z,99615.79
2023-06-25T04:06:00.646Z,99606.69
2023-06-25T04:07:06.010Z,99607.3
2023-06-25T04:08:11.398Z,99606.69
2023-06-25T04:09:16.708Z,99613.73
2023-06-25T04:10:22.020Z,99609.19
2023-06-25T04:11:27.322Z,99612.88
2023-06-25T04:12:32.651Z,99607.73
2023-06-25T04:13:37.994Z,99606.39
2023-06-25T04:14:43.336Z,99611.55
2023-06-25T04:15:48.631Z,99603.27
2023-06-25T04:16:54.133Z,99610.12
2023-06-25T04:17:59.594Z,99607.44
2023-06-25T04:19:04.965Z,99603
2023-06-25T04:20:10.312Z,99609.3
2023-06-25T04:21:15.641Z,99605.68
2023-06-25T04:22:20.967Z,99607.52
2023-06-25T04:23:26.266Z,99601.73
2023-06-25T04:24:31.574Z,99611.46
2023-06-25T04:25:37.353Z,99603.7
2023-06-25T04:26:43.166Z,99595.22
2023-06-25T04:27:48.501Z,99603.93
2023-06-25T04:28:53.823Z,99600.8
2023-06-25T04:29:59.325Z,99606.17
2023-06-25T04:31:04.670Z,99601.84
2023-06-25T04:32:10.115Z,99605.46
2023-06-25T04:33:15.545Z,99608.64
2023-06-25T04:34:20.845Z,99598.64
2023-06-25T04:35:26.159Z,99605.46
2023-06-25T04:36:33.970Z,99602.67
2023-06-25T04:37:39.280Z,99603.38
2023-06-25T04:38:44.569Z,99604.13
2023-06-25T04:39:49.879Z,99601.52
2023-06-25T04:40:55.207Z,99603.6
2023-06-25T04:42:00.544Z,99604.53
2023-06-25T04:43:06.030Z,99594.92
2023-06-25T04:44:11.353Z,99600.69
2023-06-25T04:45:16.667Z,99603.7
2023-06-25T04:46:22.074Z,99596.07
2023-06-25T04:47:27.725Z,99595.13
2023-06-25T04:48:33.104Z,99596.34
2023-06-25T04:49:38.519Z,99593.16
2023-06-25T04:50:43.829Z,99596.48
2023-06-25T04:51:49.140Z,99591.3
2023-06-25T04:52:54.444Z,99591.11
2023-06-25T04:53:59.766Z,99594.61
2023-06-25T04:55:05.132Z,99590.59
2023-06-25T04:56:10.432Z,99589.03
2023-06-25T04:57:15.766Z,99582.09
2023-06-25T04:58:21.118Z,99580.67
2023-06-25T04:59:26.467Z,99589.03
2023-06-25T05:00:31.953Z,99586.86
2023-06-25T05:01:37.349Z,99587.8
2023-06-25T05:02:42.869Z,99584.4
2023-06-25T05:03:48.380Z,99582.53
2023-06-25T05:04:53.898Z,99584.7
2023-06-25T05:05:59.259Z,99585.59
2023-06-25T05:07:04.654Z,99586.45
2023-06-25T05:08:10.059Z,99584.78
2023-06-25T05:09:15.423Z,99578.06
2023-06-25T05:10:21.146Z,99580.97
2023-06-25T05:11:26.490Z,99581.71
2023-06-25T05:12:31.781Z,99592.45
2023-06-25T05:13:37.074Z,99583.05
2023-06-25T05:14:42.408Z,99583.77
2023-06-25T05:15:47.723Z,99577.06
2023-06-25T05:16:53.048Z,99580.38
2023-06-25T05:17:58.487Z,99582.13
2023-06-25T05:19:03.897Z,99577.14
2023-06-25T05:20:09.225Z,99579.03
2023-06-25T05:21:14.523Z,99579.85
2023-06-25T05:22:19.892Z,99578.09
2023-06-25T05:23:25.350Z,99579.03
2023-06-25T05:24:30.958Z,99577.36
2023-06-25T05:25:37.034Z,99582.13
2023-06-25T05:26:43.058Z,99580.78
2023-06-25T05:27:48.380Z,99579.03
2023-06-25T05:28:53.700Z,99578.51
2023-06-25T05:29:58.999Z,99575.94
2023-06-25T05:31:04.449Z,99579.97
2023-06-25T05:32:10.791Z,99580.18
2023-06-25T05:33:16.154Z,99583.8
2023-06-25T05:34:21.510Z,99576.02
2023-06-25T05:35:26.828Z,99585.55
2023-06-25T05:36:32.175Z,99579.85
2023-06-25T05:37:37.562Z,99589.17
2023-06-25T05:38:42.939Z,99581.19
2023-06-25T05:39:48.375Z,99582.34
2023-06-25T05:40:54.092Z,99577.09
2023-06-25T05:41:59.402Z,99585.03
2023-06-25T05:43:04.707Z,99579.97
2023-06-25T05:44:10.006Z,99582.75
2023-06-25T05:45:15.373Z,99582.34
2023-06-25T05:46:20.810Z,99576.34
2023-06-25T05:47:26.230Z,99578.84
2023-06-25T05:48:31.742Z,99580.27
2023-06-25T05:49:37.045Z,99573.47
2023-06-25T05:50:42.377Z,99574.81
2023-06-25T05:51:47.709Z,99572.42
2023-06-25T05:52:53.080Z,99570.45
2023-06-25T05:53:58.396Z,99573.87
2023-06-25T05:55:03.697Z,99566.54
2023-06-25T05:56:09.075Z,99565.61
2023-06-25T05:57:14.381Z,99570.67
2023-06-25T05:58:19.698Z,99572.76
2023-06-25T05:59:25.034Z,99568.73
2023-06-25T06:00:30.426Z,99571.2
2023-06-25T06:01:35.932Z,99567.25
2023-06-25T06:02:41.469Z,99558.41
2023-06-25T06:03:46.853Z,99557.64
2023-06-25T06:04:52.204Z,99562.09
2023-06-25T06:05:57.543Z,99563.88
2023-06-25T06:07:02.934Z,99562.54
2023-06-25T06:08:08.341Z,99560.27
2023-06-25T06:09:13.654Z,99563.03
2023-06-25T06:10:19.054Z,99559.64
2023-06-25T06:11:24.362Z,99559.31
2023-06-25T06:12:29.699Z,99565.94
2023-06-25T06:13:35.008Z,99559.53
2023-06-25T06:14:40.354Z,99558.19
2023-06-25T06:15:46.560Z,99562.09
2023-06-25T06:16:52.003Z,99559.75
2023-06-25T06:17:57.363Z,99554.27
2023-06-25T06:19:02.779Z,99558.29
2023-06-25T06:20:08.155Z,99554.78
2023-06-25T06:21:13.486Z,99556.95
2023-06-25T06:22:18.832Z,99544.73
2023-06-25T06:23:24.112Z,99556.95
2023-06-25T06:24:29.407Z,99555.2
2023-06-25T06:25:34.946Z,99549.3
2023-06-25T06:26:40.898Z,99551.28
2023-06-25T06:27:46.281Z,99544.35
2023-06-25T06:28:51.596Z,99552.92
2023-06-25T06:29:56.898Z,99551.98
2023-06-25T06:31:02.329Z,99551.98
2023-06-25T06:32:07.719Z,99555.12
2023-06-25T06:33:13.042Z,99552.84
2023-06-25T06:34:18.431Z,99555.61
2023-06-25T06:35:23.708Z,99555.12
2023-06-25T06:36:29.035Z,99556.76
2023-06-25T06:37:34.350Z,99554.9
2023-06-25T06:38:39.690Z,99556.02
2023-06-25T06:39:47.883Z,99556.87
2023-06-25T06:40:53.314Z,99555.53
2023-06-25T06:41:58.651Z,99555.12
2023-06-25T06:43:03.988Z,99557.58
2023-06-25T06:44:09.275Z,99560.38
2023-06-25T06:45:14.570Z,99559.33
2023-06-25T06:46:19.902Z,99555.12
2023-06-25T06:47:25.339Z,99556.34
2023-06-25T06:48:30.739Z,99556.34
2023-06-25T06:49:36.053Z,99550.56
2023-06-25T06:50:41.443Z,99547.55
2023-06-25T06:51:46.855Z,99546.73
2023-06-25T06:52:52.206Z,99546.33
2023-06-25T06:53:57.571Z,99544.67
2023-06-25T06:55:02.867Z,99550.38
2023-06-25T06:56:08.207Z,99545.28
2023-06-25T06:57:13.524Z,99547.25
2023-06-25T06:58:18.857Z,99546.43
2023-06-25T06:59:24.177Z,99545.8
2023-06-25T07:00:29.488Z,99543.74
2023-06-25T07:01:34.872Z,99548.3
2023-06-25T07:02:40.460Z,99543.94
2023-06-25T07:03:45.965Z,99540.12
2023-06-25T07:04:51.249Z,99542.19
2023-06-25T07:05:56.719Z,99541.98
2023-06-25T07:07:02.229Z,99537.22
2023-06-25T07:08:07.631Z,99535.47
2023-06-25T07:09:12.948Z,99539.64
2023-06-25T07:10:18.293Z,99541.06
2023-06-25T07:11:23.664Z,99539.42
2023-06-25T07:12:29.073Z,99539.5
2023-06-25T07:13:34.365Z,99543.14
2023-06-25T07:14:39.730Z,99543.66
2023-06-25T07:15:45.040Z,99537.22
2023-06-25T07:16:50.344Z,99539.11
2023-06-25T07:17:55.695Z,99533.53
2023-06-25T07:19:01.083Z,99544.48
2023-06-25T07:20:06.405Z,99539.72
2023-06-25T07:21:11.757Z,99540.34
2023-06-25T07:22:17.199Z,99532.59
2023-06-25T07:23:22.528Z,99538.1
2023-06-25T07:24:27.843Z,99537.25
2023-06-25T07:25:33.173Z,99529.72
2023-06-25T07:26:38.839Z,99528.27
2023-06-25T07:27:44.178Z,99531.8
2023-06-25T07:28:49.571Z,99533.14
2023-06-25T07:29:54.875Z,99520.44
2023-06-25T07:31:00.283Z,99527.14
2023-06-25T07:32:08.857Z,99528.9
2023-06-25T07:33:14.497Z,99533.96
2023-06-25T07:34:19.825Z,99533.22
2023-06-25T07:35:25.134Z,99527.03
2023-06-25T07:36:30.519Z,99533.96
2023-06-25T07:37:39.071Z,99537.47
2023-06-25T07:38:44.410Z,99531.69
2023-06-25T07:39:49.755Z,99523.12
2023-06-25T07:40:55.055Z,99530.75
2023-06-25T07:42:00.411Z,99533.85
2023-06-25T07:43:06.163Z,99527.77
2023-06-25T07:44:46.460Z,99525.3
2023-06-25T07:46:01.484Z,99521.06
2023-06-25T07:47:06.884Z,99524.38
2023-06-25T07:48:12.191Z,99527.06
2023-06-25T07:49:17.510Z,99527.55
2023-06-25T07:50:22.830Z,99529.63
2023-06-25T07:51:28.216Z,99522.92
2023-06-25T07:52:33.538Z,99524.05
2023-06-25T07:53:38.867Z,99525.6
2023-06-25T07:54:44.172Z,99528.7
2023-06-25T07:56:04.240Z,99526.42
2023-06-25T07:57:10.423Z,99523.33
2023-06-25T07:58:15.745Z,99520.23
2023-06-25T07:59:21.038Z,99522.31
2023-06-25T08:00:26.396Z,99518.7
2023-06-25T08:01:31.738Z,99521.8
2023-06-25T08:02:37.222Z,99510.54
2023-06-25T08:03:43.063Z,99517.69
2023-06-25T08:04:48.966Z,99515.48
2023-06-25T08:05:54.596Z,99514.15
2023-06-25T08:07:00.025Z,99506.73
2023-06-25T08:08:05.434Z,99511.58
2023-06-25T08:09:10.732Z,99510.64
2023-06-25T08:10:16.066Z,99510.04
2023-06-25T08:11:21.465Z,99507.36
2023-06-25T08:12:26.793Z,99506.02
2023-06-25T08:13:32.120Z,99506.42
2023-06-25T08:14:37.433Z,99504.55
2023-06-25T08:15:43.012Z,99511.59
2023-06-25T08:16:48.927Z,99510.66
2023-06-25T08:17:54.380Z,99512.01
2023-06-25T08:18:59.872Z,99500.23
2023-06-25T08:20:05.205Z,99496.72
2023-06-25T08:21:10.540Z,99498.37
2023-06-25T08:22:15.920Z,99500.75
2023-06-25T08:23:21.274Z,99497.54
2023-06-25T08:24:26.615Z,99496.91
2023-06-25T08:25:31.938Z,99501.08
2023-06-25T08:26:37.293Z,99497.32
2023-06-25T08:27:42.649Z,99491.95
2023-06-25T08:28:47.949Z,99498.28
2023-06-25T08:29:53.287Z,99491.23
2023-06-25T08:30:58.686Z,99496.22
2023-06-25T08:32:04.169Z,99489.89
2023-06-25T08:33:09.510Z,99496.82
2023-06-25T08:34:14.833Z,99490.13
2023-06-25T08:35:20.187Z,99491.46
2023-06-25T08:36:25.520Z,99492.89
2023-06-25T08:37:30.894Z,99493.41
2023-06-25T08:38:36.224Z,99489.98
2023-06-25T08:39:41.548Z,99491.73
2023-06-25T08:40:46.904Z,99491.75
2023-06-25T08:41:52.209Z,99492.86
2023-06-25T08:42:57.535Z,99489.14
2023-06-25T08:44:03.084Z,99494.31
2023-06-25T08:45:08.423Z,99486.24
2023-06-25T08:46:13.830Z,99491.63
2023-06-25T08:47:19.163Z,99489.47
2023-06-25T08:48:24.491Z,99488.73
2023-06-25T08:49:29.877Z,99484.9
2023-06-25T08:50:35.300Z,99485.83
2023-06-25T08:51:40.650Z,99490.19
2023-06-25T08:52:45.964Z,99489.06
2023-06-25T08:53:51.294Z,99488.73
2023-06-25T08:54:56.611Z,99485.83
2023-06-25T08:56:01.902Z,99485.94
2023-06-25T08:57:07.251Z,99483.69
2023-06-25T08:58:12.568Z,99482.84
2023-06-25T08:59:17.879Z,99477.17
2023-06-25T09:00:23.665Z,99477.88
2023-06-25T09:01:28.988Z,99481.5
2023-06-25T09:02:34.511Z,99481.01
2023-06-25T09:03:40.302Z,99472.1
2023-06-25T09:04:45.600Z,99477.47
2023-06-25T09:05:50.920Z,99478.73
2023-06-25T09:07:06.269Z,99474.48
2023-06-25T09:08:11.698Z,99481.3
2023-06-25T09:09:16.999Z,99473.15
2023-06-25T09:10:22.448Z,99480.38
2023-06-25T09:11:27.812Z,99474.7
2023-06-25T09:12:33.141Z,99476.45
2023-06-25T09:13:38.552Z,99476.05
2023-06-25T09:14:43.961Z,99468.59
2023-06-25T09:15:49.257Z,99474.3
2023-06-25T09:16:54.614Z,99477.28
2023-06-25T09:18:00.041Z,99477.69
2023-06-25T09:19:05.447Z,99481.72
2023-06-25T09:20:10.852Z,99476.75
2023-06-25T09:21:16.205Z,99471.91
2023-06-25T09:22:21.476Z,99467.86
2023-06-25T09:23:26.801Z,99467.8
2023-06-25T09:24:32.143Z,99466.66
2023-06-25T09:25:37.590Z,99473.17
2023-06-25T09:26:42.948Z,99467.58
2023-06-25T09:27:48.248Z,99461.98
2023-06-25T09:28:53.626Z,99463.86
2023-06-25T09:29:58.977Z,99464.18
2023-06-25T09:31:04.412Z,99459.94
2023-06-25T09:32:09.855Z,99460.16
2023-06-25T09:33:15.303Z,99453.02
2023-06-25T09:34:20.669Z,99464.27
2023-06-25T09:35:26.023Z,99455.59
2023-06-25T09:36:40.603Z,99450.95
2023-06-25T09:37:45.950Z,99454.57
2023-06-25T09:38:51.250Z,99450.41
2023-06-25T09:39:56.592Z,99457.55
2023-06-25T09:41:01.937Z,99448.27
2023-06-25T09:42:07.431Z,99450.55
2023-06-25T09:43:12.753Z,99454.45
2023-06-25T09:44:18.221Z,99451.88
2023-06-25T09:45:23.535Z,99450.55
2023-06-25T09:46:28.980Z,99453.64
2023-06-25T09:47:34.463Z,99459.42
2023-06-25T09:48:39.868Z,99451.03
2023-06-25T09:49:45.234Z,99449.91
2023-06-25T09:50:51.495Z,99453.03
2023-06-25T09:51:56.834Z,99450.84
2023-06-25T09:53:02.142Z,99447.14
2023-06-25T09:54:07.487Z,99443.2
2023-06-25T09:55:12.944Z,99438.89
2023-06-25T09:56:18.316Z,99440.86
2023-06-25T09:57:23.685Z,99446.52
2023-06-25T09:58:29.085Z,99438.25
2023-06-25T09:59:34.607Z,99443.13
2023-06-25T10:00:40.006Z,99441.7
2023-06-25T10:01:45.618Z,99439.42
2023-06-25T10:02:51.311Z,99436.33
2023-06-25T10:03:57.009Z,99437.88
2023-06-25T10:05:02.523Z,99427.86
2023-06-25T10:06:07.834Z,99431.98
2023-06-25T10:07:13.297Z,99431.38
2023-06-25T10:08:18.759Z,99426.73
2023-06-25T10:09:24.058Z,99425.9
2023-06-25T10:10:29.412Z,99426.09
2023-06-25T10:11:35.060Z,99426.22
2023-06-25T10:12:40.684Z,99427.56
2023-06-25T10:13:46.040Z,99420.44
2023-06-25T10:14:51.565Z,99424.77
2023-06-25T10:15:56.997Z,99425.81
2023-06-25T10:17:02.507Z,99427.86
2023-06-25T10:18:08.152Z,99434.16
2023-06-25T10:19:13.711Z,99423.83
2023-06-25T10:20:19.035Z,99427.67
2023-06-25T10:21:24.362Z,99428.27
2023-06-25T10:22:29.689Z,99427.98
2023-06-25T10:23:35.023Z,99425.8
2023-06-25T10:24:40.354Z,99430.34
2023-06-25T10:25:45.834Z,99433.22
2023-06-25T10:26:53.396Z,99431.17
2023-06-25T10:27:58.754Z,99426.81
2023-06-25T10:29:04.069Z,99431.36
2023-06-25T10:30:09.377Z,99425.47
2023-06-25T10:31:15.379Z,99432.52
2023-06-25T10:32:21.489Z,99430.13
2023-06-25T10:33:27.241Z,99428.29
2023-06-25T10:34:33.169Z,99425.39
2023-06-25T10:35:39.233Z,99419.79
2023-06-25T10:36:45.014Z,99424.36
2023-06-25T10:37:50.321Z,99419.8
2023-06-25T10:38:55.672Z,99425.91
2023-06-25T10:40:01.036Z,99416.3
2023-06-25T10:41:06.359Z,99424.78
2023-06-25T10:42:11.708Z,99416.52
2023-06-25T10:43:17.017Z,99416.83
2023-06-25T10:44:22.435Z,99428.92
2023-06-25T10:45:27.781Z,99425.8
2023-06-25T10:46:36.819Z,99421.98
2023-06-25T10:47:42.235Z,99418.48
2023-06-25T10:48:47.675Z,99430.77
2023-06-25T10:49:53.098Z,99425.41
2023-06-25T10:50:58.520Z,99421.37
2023-06-25T10:52:03.829Z,99422.2
2023-06-25T10:53:09.180Z,99423.95
2023-06-25T10:54:14.502Z,99422.94
2023-06-25T10:55:19.853Z,99418.79
2023-06-25T10:56:25.225Z,99414.55
2023-06-25T10:57:30.599Z,99417.89
2023-06-25T10:58:35.885Z,99416.34
2023-06-25T10:59:41.262Z,99414.77
2023-06-25T11:00:46.685Z,99414.52
2023-06-25T11:01:52.164Z,99418.21
2023-06-25T11:02:57.624Z,99412.13
2023-06-25T11:04:03.135Z,99410.25
2023-06-25T11:05:08.477Z,99410.05
2023-06-25T11:06:13.896Z,99410.98
2023-06-25T11:07:19.327Z,99407.48
2023-06-25T11:08:24.911Z,99410.98
2023-06-25T11:09:30.245Z,99403.86
2023-06-25T11:10:35.550Z,99413.36
2023-06-25T11:11:41.337Z,99410.67
2023-06-25T11:12:46.756Z,99410.38
2023-06-25T11:13:52.208Z,99412.25
2023-06-25T11:15:00.640Z,99409.25
2023-06-25T11:16:06.112Z,99396.22
2023-06-25T11:17:11.569Z,99404.29
2023-06-25T11:18:16.887Z,99397.89
2023-06-25T11:19:22.175Z,99396.02
2023-06-25T11:20:30.878Z,99395.18
2023-06-25T11:21:36.311Z,99398.39
2023-06-25T11:22:41.864Z,99388.28
2023-06-25T11:23:47.587Z,99397.78
2023-06-25T11:24:53.158Z,99396.33
2023-06-25T11:25:59.251Z,99389.92
2023-06-25T11:27:07.560Z,99394.16
2023-06-25T11:28:12.885Z,99397.27
2023-06-25T11:29:18.252Z,99387.97
2023-06-25T11:30:23.578Z,99393.97
2023-06-25T11:31:29.154Z,99387.04
2023-06-25T11:32:35.089Z,99395.6
2023-06-25T11:33:40.540Z,99392.92
2023-06-25T11:34:45.923Z,99390.67
2023-06-25T11:35:51.956Z,99391.28
2023-06-25T11:36:57.479Z,99382.27
2023-06-25T11:38:02.808Z,99399.14
2023-06-25T11:39:08.198Z,99391.9
2023-06-25T11:40:13.601Z,99384.23
2023-06-25T11:41:18.945Z,99389.63
2023-06-25T11:42:24.621Z,99384.04
2023-06-25T11:43:30.607Z,99393.13
2023-06-25T11:44:36.762Z,99393.24
2023-06-25T11:45:42.512Z,99389.51
2023-06-25T11:46:47.884Z,99391.29
2023-06-25T11:47:53.503Z,99390.36
2023-06-25T11:48:59.359Z,99385.39
2023-06-25T11:50:04.835Z,99390.78
2023-06-25T11:51:10.162Z,99388.17
2023-06-25T11:52:15.499Z,99384.88
2023-06-25T11:53:20.815Z,99389.23
2023-06-25T11:54:29.337Z,99383.94
2023-06-25T11:55:35.132Z,99375.98
2023-06-25T11:56:41.051Z,99385.59
2023-06-25T11:57:46.397Z,99381.47
2023-06-25T11:58:51.723Z,99381.26
2023-06-25T11:59:57.308Z,99382.81
2023-06-25T12:01:02.637Z,99379.7
2023-06-25T12:02:08.053Z,99382.89
2023-06-25T12:03:13.660Z,99382.08
2023-06-25T12:04:19.170Z,99380.73
2023-06-25T12:05:24.660Z,99374.01
2023-06-25T12:06:30.047Z,99376.09
2023-06-25T12:07:35.428Z,99375.16
2023-06-25T12:08:40.772Z,99374.01
2023-06-25T12:09:46.075Z,99367.8
2023-06-25T12:10:51.385Z,99367.49
2023-06-25T12:11:56.714Z,99359.66
2023-06-25T12:13:02.014Z,99360.97
2023-06-25T12:14:07.368Z,99362.02
2023-06-25T12:15:12.748Z,99354.49
2023-06-25T12:16:18.038Z,99353.76
2023-06-25T12:17:23.374Z,99347.53
2023-06-25T12:18:28.744Z,99355.51
2023-06-25T12:19:34.032Z,99349.41
2023-06-25T12:20:39.370Z,99351.77
2023-06-25T12:21:44.667Z,99360.03
2023-06-25T12:22:50.170Z,99356.2
2023-06-25T12:23:55.528Z,99362.72
2023-06-25T12:25:00.850Z,99355.91
2023-06-25T12:26:06.146Z,99354.77
2023-06-25T12:27:11.445Z,99353.72
2023-06-25T12:28:16.746Z,99350.09
2023-06-25T12:29:22.105Z,99347.12
2023-06-25T12:30:27.482Z,99351.35
2023-06-25T12:31:32.870Z,99337.52
2023-06-25T12:32:38.402Z,99338.65
2023-06-25T12:33:43.810Z,99344.11
2023-06-25T12:34:49.178Z,99341.43
2023-06-25T12:35:54.509Z,99336.9
2023-06-25T12:36:59.837Z,99341.43
2023-06-25T12:38:05.187Z,99339.07
2023-06-25T12:39:10.542Z,99339.56
2023-06-25T12:40:15.851Z,99337.64
2023-06-25T12:41:21.175Z,99334.11
2023-06-25T12:42:26.540Z,99328.73
2023-06-25T12:43:31.870Z,99329.59
2023-06-25T12:44:37.199Z,99332.59
2023-06-25T12:45:42.532Z,99325.97
2023-06-25T12:46:48.022Z,99325.23
2023-06-25T12:47:53.461Z,99324.02
2023-06-25T12:48:58.841Z,99320.8
2023-06-25T12:50:04.232Z,99324.09
2023-06-25T12:51:09.600Z,99326.39
2023-06-25T12:52:14.939Z,99317.92